createdAt,value
2023-01-04T00:00:18.247Z,100.00
2023-01-04T00:05:19.913Z,100.00
2023-01-04T00:10:21.544Z,100.00
2023-01-04T00:15:23.181Z,100.00
2023-01-04T00:20:24.823Z,100.00
2023-01-04T00:25:26.716Z,100.00
2023-01-04T00:30:28.319Z,100.00
2023-01-04T00:35:45.189Z,100.00
2023-01-04T00:40:47.620Z,100.00
2023-01-04T00:45:49.284Z,100.00
2023-01-04T00:50:51.214Z,100.00
2023-01-04T00:55:52.868Z,100.00
2023-01-04T01:00:54.587Z,100.00
2023-01-04T01:06:00.728Z,100.00
2023-01-04T01:11:08.215Z,100.00
2023-01-04T01:16:13.145Z,100.00
2023-01-04T01:21:18.077Z,100.00
2023-01-04T01:26:22.611Z,100.00
2023-01-04T01:31:26.644Z,100.00
2023-01-04T01:36:28.548Z,100.00
2023-01-04T01:41:32.955Z,100.00
2023-01-04T01:46:44.341Z,100.00
2023-01-04T01:51:46.222Z,100.00
2023-01-04T01:56:50.830Z,100.00
2023-01-04T02:01:52.571Z,100.00
2023-01-04T02:06:57.836Z,100.00
2023-01-04T02:11:59.421Z,100.00
2023-01-04T02:17:34.449Z,100.00
2023-01-04T02:23:08.332Z,100.00
2023-01-04T02:28:25.555Z,100.00
2023-01-04T02:34:22.611Z,100.00
2023-01-04T02:39:42.368Z,100.00
2023-01-04T02:44:53.442Z,100.00
2023-01-04T02:50:13.846Z,100.00
2023-01-04T02:55:15.515Z,100.00
2023-01-04T03:01:07.724Z,100.00
2023-01-04T03:06:41.987Z,100.00
2023-01-04T03:12:11.947Z,100.00
2023-01-04T03:17:16.373Z,100.00
2023-01-04T03:22:45.675Z,99.58
2023-01-04T03:28:09.027Z,98.77
2023-01-04T03:33:29.931Z,98.39
2023-01-04T03:39:24.623Z,99.11
2023-01-04T03:45:05.929Z,100.00
2023-01-04T03:50:45.120Z,100.00
2023-01-04T03:55:47.762Z,100.00
2023-01-04T04:00:49.526Z,100.00
2023-01-04T04:06:10.127Z,100.00
2023-01-04T04:11:30.161Z,100.00
2023-01-04T04:16:31.921Z,100.00
2023-01-04T04:21:33.575Z,100.00
2023-01-04T04:26:35.172Z,100.00
2023-01-04T04:31:37.083Z,100.00
2023-01-04T04:36:38.862Z,100.00
2023-01-04T04:41:44.106Z,100.00
2023-01-04T04:46:47.553Z,100.00
2023-01-04T04:51:49.371Z,100.00
2023-01-04T04:56:51.025Z,100.00
2023-01-04T05:01:52.755Z,100.00
2023-01-04T05:06:54.749Z,100.00
2023-01-04T05:12:14.684Z,100.00
2023-01-04T05:17:17.371Z,100.00
2023-01-04T05:22:19.178Z,100.00
2023-01-04T05:27:20.834Z,100.00
2023-01-04T05:32:22.443Z,100.00
2023-01-04T05:37:24.207Z,100.00
2023-01-04T05:42:25.819Z,100.00
2023-01-04T05:47:27.969Z,100.00
2023-01-04T05:52:30.034Z,100.00
2023-01-04T05:57:32.130Z,100.00
2023-01-04T06:02:34.391Z,100.00
2023-01-04T06:07:36.486Z,100.00
2023-01-04T06:12:38.721Z,100.00
2023-01-04T06:17:40.814Z,100.00
2023-01-04T06:22:43.073Z,100.00
2023-01-04T06:27:44.809Z,100.00
2023-01-04T06:32:46.379Z,100.00
2023-01-04T06:37:48.175Z,100.00
2023-01-04T06:42:49.779Z,99.94
2023-01-04T06:47:51.439Z,100.00
2023-01-04T06:52:53.007Z,99.53
2023-01-04T06:57:59.373Z,99.63
2023-01-04T07:03:13.429Z,99.41
2023-01-04T07:08:18.127Z,99.53
2023-01-04T07:13:19.910Z,99.50
2023-01-04T07:18:21.910Z,99.46
2023-01-04T07:23:23.511Z,99.89
2023-01-04T07:28:54.168Z,99.59
2023-01-04T07:33:56.029Z,99.86
2023-01-04T07:38:59.984Z,100.00
2023-01-04T07:44:01.734Z,100.00
2023-01-04T07:49:04.411Z,100.00
2023-01-04T07:54:06.373Z,100.00
2023-01-04T07:59:09.521Z,100.00
2023-01-04T08:04:12.832Z,100.00
2023-01-04T08:09:14.639Z,100.00
2023-01-04T08:14:16.250Z,100.00
2023-01-04T08:19:20.776Z,100.00
2023-01-04T08:24:22.441Z,100.00
2023-01-04T08:29:28.210Z,100.00
2023-01-04T08:34:34.466Z,100.00
2023-01-04T08:39:36.254Z,100.00
2023-01-04T08:44:38.128Z,100.00
2023-01-04T08:49:39.793Z,100.00
2023-01-04T08:54:42.150Z,100.00
2023-01-04T08:59:43.962Z,100.00
2023-01-04T09:04:45.653Z,100.00
2023-01-04T09:09:47.446Z,100.00
2023-01-04T09:14:49.157Z,100.00
2023-01-04T09:19:50.745Z,100.00
2023-01-04T09:24:52.414Z,100.00
2023-01-04T09:29:55.651Z,100.00
2023-01-04T09:34:57.273Z,100.00
2023-01-04T09:39:58.899Z,100.00
2023-01-04T09:45:24.815Z,100.00
2023-01-04T09:50:42.877Z,100.00
2023-01-04T09:55:48.204Z,100.00
2023-01-04T10:01:00.710Z,100.00
2023-01-04T10:06:03.385Z,100.00
2023-01-04T10:11:29.939Z,100.00
2023-01-04T10:17:10.458Z,100.00
2023-01-04T10:22:11.545Z,100.00
2023-01-04T10:27:42.897Z,100.00
2023-01-04T10:32:46.196Z,100.00
2023-01-04T10:38:15.475Z,100.00
2023-01-04T10:43:25.272Z,100.00
2023-01-04T10:48:36.031Z,100.00
2023-01-04T10:53:56.475Z,100.00
2023-01-04T10:59:16.251Z,100.00
2023-01-04T11:04:53.293Z,100.00
2023-01-04T11:10:05.775Z,100.00
2023-01-04T11:15:08.261Z,100.00
2023-01-04T11:20:10.776Z,100.00
2023-01-04T11:25:35.226Z,100.00
2023-01-04T11:30:58.998Z,100.00
2023-01-04T11:36:01.517Z,100.00
2023-01-04T11:41:06.618Z,100.00
2023-01-04T11:46:17.801Z,100.00
2023-01-04T11:51:25.455Z,100.00
2023-01-04T11:56:32.334Z,100.00
2023-01-04T12:01:39.835Z,100.00
2023-01-04T12:06:57.887Z,100.00
2023-01-04T12:12:01.863Z,100.00
2023-01-04T12:17:06.113Z,100.00
2023-01-04T12:22:26.123Z,100.00
2023-01-04T12:27:28.150Z,100.00
2023-01-04T12:32:29.812Z,100.00
2023-01-04T12:37:48.480Z,100.00
2023-01-04T12:43:15.034Z,100.00
2023-01-04T12:48:47.318Z,100.00
2023-01-04T12:54:04.221Z,100.00
2023-01-04T12:59:27.391Z,99.58
2023-01-04T13:04:40.759Z,100.00
2023-01-04T13:09:50.370Z,99.14
2023-01-04T13:14:57.766Z,98.14
2023-01-04T13:20:00.632Z,98.66
2023-01-04T13:25:04.780Z,99.22
2023-01-04T13:30:06.744Z,98.79
2023-01-04T13:35:13.930Z,98.98
2023-01-04T13:40:19.447Z,98.36
2023-01-04T13:46:05.546Z,99.07
2023-01-04T13:51:37.726Z,97.71
2023-01-04T13:56:39.928Z,98.54
2023-01-04T14:01:44.576Z,98.69
2023-01-04T14:06:49.759Z,97.64
2023-01-04T14:17:36.231Z,96.43
2023-01-04T14:22:47.352Z,95.55
2023-01-04T14:27:48.987Z,96.16
2023-01-04T14:32:58.581Z,96.76
2023-01-04T14:38:06.167Z,96.92
2023-01-04T14:43:46.210Z,96.99
2023-01-04T14:48:47.800Z,97.24
2023-01-04T14:53:49.581Z,97.03
2023-01-04T14:58:51.171Z,96.77
2023-01-04T15:03:52.833Z,97.34
2023-01-04T15:08:54.448Z,97.38
2023-01-04T15:13:56.270Z,97.21
2023-01-04T15:18:58.104Z,97.28
2023-01-04T15:24:00.652Z,97.60
2023-01-04T15:29:02.659Z,97.98
2023-01-04T15:34:04.345Z,97.58
2023-01-04T15:39:07.349Z,97.55
2023-01-04T15:44:10.000Z,98.06
2023-01-04T15:49:16.852Z,98.25
2023-01-04T15:54:21.712Z,98.69
2023-01-04T15:59:23.880Z,99.40
2023-01-04T16:04:26.822Z,98.98
2023-01-04T16:09:28.695Z,99.69
2023-01-04T16:14:30.475Z,99.41
2023-01-04T16:19:34.199Z,99.56
2023-01-04T16:29:57.783Z,99.46
2023-01-04T16:34:59.432Z,99.61
2023-01-04T16:40:09.151Z,99.65
2023-01-04T16:45:11.658Z,99.61
2023-01-04T16:50:14.237Z,99.32
2023-01-04T16:55:21.792Z,99.90
2023-01-04T17:00:25.347Z,100.00
2023-01-04T17:05:27.207Z,100.00
2023-01-04T17:10:29.785Z,100.00
2023-01-04T17:15:47.078Z,100.00
2023-01-04T17:20:54.512Z,100.00
2023-01-04T17:26:01.390Z,100.00
2023-01-04T17:31:14.142Z,100.00
2023-01-04T17:36:17.842Z,100.00
2023-01-04T17:41:21.745Z,100.00
2023-01-04T17:46:25.184Z,100.00
2023-01-04T17:51:26.914Z,100.00
2023-01-04T17:56:30.042Z,100.00
2023-01-04T18:01:33.285Z,100.00
2023-01-04T18:06:37.239Z,100.00
2023-01-04T18:11:39.076Z,100.00
2023-01-04T18:16:56.687Z,100.00
2023-01-04T18:21:58.995Z,100.00
2023-01-04T18:32:24.312Z,100.00
2023-01-04T18:37:26.118Z,100.00
2023-01-04T18:42:27.819Z,100.00
2023-01-04T18:47:29.436Z,100.00
2023-01-04T18:52:31.046Z,100.00
2023-01-04T18:57:32.785Z,100.00
2023-01-04T19:02:35.020Z,100.00
2023-01-04T19:07:38.984Z,100.00
2023-01-04T19:12:40.790Z,100.00
2023-01-04T19:17:42.701Z,100.00
2023-01-04T19:22:44.276Z,100.00
2023-01-04T19:27:45.906Z,100.00
2023-01-04T19:32:47.512Z,100.00
2023-01-04T19:37:49.302Z,100.00
2023-01-04T19:42:51.666Z,100.00
2023-01-04T19:47:53.332Z,100.00
2023-01-04T19:52:54.985Z,100.00
2023-01-04T19:57:57.250Z,100.00
2023-01-04T20:02:59.082Z,100.00
2023-01-04T20:08:00.787Z,100.00
2023-01-04T20:13:02.763Z,100.00
2023-01-04T20:18:10.041Z,99.82
2023-01-04T20:23:15.546Z,99.06
2023-01-04T20:28:20.685Z,97.72
2023-01-04T20:33:22.503Z,95.12
2023-01-04T20:38:24.431Z,95.77
2023-01-04T20:43:36.350Z,95.29
2023-01-04T20:48:38.316Z,94.81
2023-01-04T20:53:39.971Z,94.76
2023-01-04T20:58:42.397Z,93.66
2023-01-04T21:03:44.567Z,93.73
2023-01-04T21:08:46.886Z,90.59
2023-01-04T21:13:50.334Z,90.90
2023-01-04T21:18:51.951Z,91.73
2023-01-04T21:23:57.960Z,91.36
2023-01-04T21:28:59.881Z,90.82
2023-01-04T21:34:02.970Z,91.38
2023-01-04T21:39:07.339Z,91.98
2023-01-04T21:44:09.265Z,92.61
2023-01-04T21:49:11.901Z,91.90
2023-01-04T21:54:13.971Z,91.95
2023-01-04T21:59:15.572Z,90.95
2023-01-04T22:04:17.766Z,90.63
2023-01-04T22:09:19.826Z,89.65
2023-01-04T22:14:21.533Z,87.74
2023-01-04T22:19:23.196Z,87.26
2023-01-04T22:24:25.135Z,87.48
2023-01-04T22:29:26.774Z,87.63
2023-01-04T22:34:28.670Z,85.75
2023-01-04T22:39:30.384Z,86.70
2023-01-04T22:44:32.009Z,85.29
2023-01-04T22:49:33.637Z,81.17
2023-01-04T22:54:35.486Z,80.13
2023-01-04T22:59:37.084Z,78.53
2023-01-04T23:04:38.782Z,79.28
2023-01-04T23:09:40.422Z,78.32
2023-01-04T23:14:42.373Z,78.87
2023-01-04T23:19:44.236Z,76.22
2023-01-04T23:24:46.076Z,77.88
2023-01-04T23:29:48.137Z,77.97
2023-01-04T23:34:51.246Z,76.75
2023-01-04T23:39:52.841Z,77.59
2023-01-04T23:44:54.483Z,77.40
2023-01-04T23:49:56.123Z,78.36
2023-01-04T23:54:57.937Z,78.49
2023-01-04T23:59:59.575Z,79.79
